You are listening to:
KSGJ ATIS - St Augustine, Florida, United States

KSGJ 042356Z 34011KT 10SM FEW028 BKN042 OVC050 14/14 A3040 RMK AO2 SLP295 60001 T01440144 10189 20139 51005

If stream doesn't start automatically press the play button
If stream stops then reload player then press play